Archiv-/Tagesdaten

--Timestamp---	Temp	Chill	HIndex	Humid	Dewpt	 Wind 	HiWind	WindDir	Rain 	Barom	Solar	 ET  	 UV 
--------------	----	-----	------	-----	-----	------	------	-------	-----	-----	-----	-----	----
20090829 00:00	18.9	18.9	18.9	69	13.1	2	8	22	0.0	1014.6	0	0.051	0.0
20090829 00:05	18.8	18.8	18.8	67	12.5	5	16	338	0.0	1014.4	0	0.000	0.0
20090829 00:10	18.7	18.7	18.7	68	12.6	2	14	292	0.0	1014.4	0	0.000	0.0
20090829 00:15	18.6	18.6	18.6	67	12.4	3	14	315	0.0	1014.5	0	0.000	0.0
20090829 00:20	18.6	18.6	18.6	68	12.5	2	6	315	0.0	1014.6	0	0.000	0.0
20090829 00:25	18.4	18.4	18.4	68	12.4	3	11	292	0.0	1014.7	0	0.000	0.0
20090829 00:30	18.3	18.3	18.3	68	12.3	8	18	315	0.0	1014.7	0	0.000	0.0
20090829 00:35	18.3	18.3	18.3	65	11.6	11	24	315	0.0	1014.8	0	0.000	0.0
20090829 00:40	18.2	18.2	18.2	63	11.1	11	24	315	0.0	1014.8	0	0.000	0.0
20090829 00:45	18.2	18.2	18.2	62	10.8	10	23	315	0.0	1014.9	0	0.000	0.0
20090829 00:50	18.1	18.1	18.1	60	10.2	11	23	315	0.0	1014.8	0	0.000	0.0
20090829 00:55	18.1	18.1	18.1	60	10.2	13	23	315	0.0	1014.8	0	0.000	0.0
20090829 01:00	18.0	18.0	18.0	61	10.4	11	19	315	0.0	1014.8	0	0.051	0.0
20090829 01:05	17.9	17.9	17.9	61	10.3	8	18	315	0.0	1014.9	0	0.000	0.0
20090829 01:10	17.8	17.8	17.8	61	10.2	6	16	315	0.0	1014.9	0	0.000	0.0
20090829 01:15	17.8	17.8	17.8	62	10.4	6	16	315	0.0	1015.0	0	0.000	0.0
20090829 01:20	17.7	17.7	17.7	61	10.1	6	18	315	0.0	1015.0	0	0.000	0.0
20090829 01:25	17.7	17.7	17.7	61	10.0	10	19	315	0.0	1014.9	0	0.000	0.0
20090829 01:30	17.7	17.7	17.7	61	10.0	8	23	315	0.0	1014.9	0	0.000	0.0
20090829 01:35	17.6	17.6	17.6	62	10.2	8	16	292	0.0	1014.9	0	0.000	0.0
20090829 01:40	17.6	17.6	17.6	61	9.9	10	21	315	0.0	1014.9	0	0.000	0.0
20090829 01:45	17.5	17.5	17.5	62	10.1	11	23	315	0.0	1015.0	0	0.000	0.0
20090829 01:50	17.4	17.4	17.4	62	10.1	8	18	315	0.0	1015.0	0	0.000	0.0
20090829 01:55	17.4	17.4	17.4	62	10.1	10	16	315	0.0	1015.0	0	0.000	0.0
20090829 02:00	17.4	17.4	17.4	61	9.8	13	21	315	0.0	1015.0	0	0.076	0.0
20090829 02:05	17.4	17.4	17.4	61	9.8	10	18	315	0.0	1015.1	0	0.000	0.0
20090829 02:10	17.3	17.3	17.3	61	9.7	8	18	315	0.0	1015.1	0	0.000	0.0
20090829 02:15	17.3	17.3	17.3	61	9.7	11	19	315	0.0	1015.0	0	0.000	0.0
20090829 02:20	17.2	17.2	17.2	60	9.4	11	23	315	0.0	1015.1	0	0.000	0.0
20090829 02:25	17.2	17.2	17.2	61	9.6	6	11	315	0.0	1015.1	0	0.000	0.0
20090829 02:30	17.2	17.2	17.2	61	9.6	8	16	315	0.0	1015.2	0	0.000	0.0
20090829 02:35	17.2	17.2	17.2	61	9.6	8	14	315	0.0	1015.2	0	0.000	0.0
20090829 02:40	17.1	17.1	17.1	62	9.8	3	8	315	0.0	1015.2	0	0.000	0.0
20090829 02:45	17.1	17.1	17.1	62	9.7	3	8	292	0.0	1015.3	0	0.000	0.0
20090829 02:50	17.0	17.0	17.0	62	9.7	5	8	292	0.0	1015.4	0	0.000	0.0
20090829 02:55	16.9	16.9	16.9	62	9.6	3	6	292	0.0	1015.4	0	0.000	0.0
20090829 03:00	16.9	16.9	16.9	62	9.6	2	5	292	0.0	1015.5	0	0.051	0.0
20090829 03:05	16.9	16.9	16.9	62	9.6	0	3	292	0.0	1015.5	0	0.000	0.0
20090829 03:10	16.8	16.8	16.8	64	10.0	0	2	292	0.0	1015.5	0	0.000	0.0
20090829 03:15	16.8	16.8	16.8	66	10.4	0	2	292	0.0	1015.6	0	0.000	0.0
20090829 03:20	16.7	16.7	16.7	67	10.6	2	5	292	0.0	1015.6	0	0.000	0.0
20090829 03:25	16.6	16.6	16.6	66	10.2	2	6	292	0.0	1015.5	0	0.000	0.0
20090829 03:30	16.6	16.6	16.6	65	9.9	3	8	270	0.0	1015.6	0	0.000	0.0
20090829 03:35	16.5	16.5	16.5	67	10.3	3	6	270	0.0	1015.5	0	0.000	0.0
20090829 03:40	16.3	16.3	16.3	69	10.6	3	5	270	0.0	1015.6	0	0.000	0.0
20090829 03:45	16.2	16.2	16.2	69	10.5	2	8	270	0.0	1015.8	0	0.000	0.0
20090829 03:50	16.0	16.0	16.0	71	10.7	2	6	270	0.0	1015.8	0	0.000	0.0
20090829 03:55	15.9	15.9	15.9	71	10.7	0	5	270	0.0	1015.6	0	0.000	0.0
20090829 04:00	15.8	15.8	15.8	72	10.8	2	5	270	0.0	1015.5	0	0.025	0.0
20090829 04:05	15.7	15.7	15.7	70	10.2	6	14	315	0.0	1015.5	0	0.000	0.0
20090829 04:10	15.6	15.6	15.6	73	10.7	5	14	292	0.2	1015.6	0	0.000	0.0
20090829 04:15	15.3	15.3	15.3	74	10.7	3	6	292	0.0	1015.6	0	0.000	0.0
20090829 04:20	15.1	15.1	15.1	75	10.7	2	6	292	0.0	1015.6	0	0.000	0.0
20090829 04:25	15.0	15.0	15.0	78	11.2	2	3	292	0.2	1015.5	0	0.000	0.0
20090829 04:30	14.8	14.8	14.8	80	11.4	3	8	292	0.0	1015.6	0	0.000	0.0
20090829 04:35	14.6	14.6	14.6	81	11.3	5	8	225	0.0	1015.8	0	0.000	0.0
20090829 04:40	14.3	14.3	14.3	82	11.2	5	8	225	0.0	1015.9	0	0.000	0.0
20090829 04:45	14.1	14.1	14.1	83	11.2	6	10	202	0.0	1015.9	0	0.000	0.0
20090829 04:50	13.8	13.8	13.8	84	11.2	6	14	225	0.2	1015.9	0	0.000	0.0
20090829 04:55	13.8	13.8	13.8	85	11.3	6	11	225	0.0	1016.1	0	0.000	0.0
20090829 05:00	13.6	13.6	13.6	85	11.1	6	14	180	0.2	1016.0	0	0.025	0.0
20090829 05:05	13.6	13.6	13.6	86	11.3	5	10	202	0.0	1016.5	0	0.000	0.0
20090829 05:10	13.5	13.5	13.5	87	11.4	6	11	180	0.0	1016.3	0	0.000	0.0
20090829 05:15	13.5	13.5	13.5	87	11.4	5	10	180	0.2	1016.3	0	0.000	0.0
20090829 05:20	13.4	13.4	13.4	88	11.5	5	8	158	0.0	1016.3	0	0.000	0.0
20090829 05:25	13.4	13.4	13.4	88	11.5	5	11	202	0.0	1016.3	0	0.000	0.0
20090829 05:30	13.4	13.4	13.4	88	11.4	6	11	202	0.0	1016.4	0	0.000	0.0
20090829 05:35	13.4	13.4	13.4	88	11.4	6	13	180	0.0	1016.4	0	0.000	0.0
20090829 05:40	13.4	13.4	13.4	89	11.7	5	11	180	0.0	1016.4	0	0.000	0.0
20090829 05:45	13.4	13.4	13.4	89	11.7	5	11	180	0.0	1016.4	0	0.000	0.0
20090829 05:50	13.4	13.4	13.4	89	11.7	6	11	180	0.0	1016.4	0	0.000	0.0
20090829 05:55	13.4	13.4	13.4	89	11.7	5	10	180	0.0	1016.4	0	0.000	0.0
20090829 06:00	13.4	13.4	13.4	89	11.7	5	11	180	0.0	1016.5	0	0.025	0.0
20090829 06:05	13.4	13.4	13.4	89	11.7	5	11	180	0.0	1016.7	0	0.000	0.0
20090829 06:10	13.4	13.4	13.4	89	11.7	5	14	202	0.0	1016.7	0	0.000	0.0
20090829 06:15	13.4	13.4	13.4	89	11.6	5	14	225	0.0	1016.7	0	0.000	0.0
20090829 06:20	13.4	13.4	13.4	89	11.6	5	10	202	0.0	1016.7	0	0.000	0.0
20090829 06:25	13.4	13.4	13.4	88	11.4	5	10	202	0.0	1016.8	0	0.000	0.0
20090829 06:30	13.4	13.4	13.4	88	11.5	5	8	180	0.0	1016.7	0	0.000	0.0
20090829 06:35	13.4	13.4	13.4	88	11.5	5	10	180	0.0	1016.7	0	0.000	0.0
20090829 06:40	13.5	13.5	13.5	89	11.7	5	10	180	0.0	1016.8	0	0.000	0.0
20090829 06:45	13.5	13.5	13.5	89	11.7	5	10	202	0.0	1016.8	0	0.000	0.0
20090829 06:50	13.6	13.6	13.6	88	11.6	5	11	202	0.0	1016.9	0	0.000	0.0
20090829 06:55	13.6	13.6	13.6	88	11.6	5	14	180	0.0	1016.8	0	0.000	0.0
20090829 07:00	13.6	13.6	13.6	88	11.6	5	10	202	0.0	1016.9	4	0.000	0.0
20090829 07:05	13.6	13.6	13.6	88	11.7	3	11	225	0.0	1017.2	10	0.000	0.0
20090829 07:10	13.7	13.7	13.7	88	11.7	5	13	225	0.0	1017.2	9	0.000	0.0
20090829 07:15	13.7	13.7	13.7	88	11.7	5	11	225	0.0	1017.3	16	0.000	0.0
20090829 07:20	13.7	13.7	13.7	89	11.9	6	11	202	0.0	1017.3	19	0.000	0.0
20090829 07:25	13.8	13.8	13.8	89	12.0	5	11	180	0.0	1017.4	20	0.000	0.0
20090829 07:30	13.8	13.8	13.8	89	12.0	6	13	180	0.0	1017.5	15	0.000	0.0
20090829 07:35	13.8	13.8	13.8	89	12.0	5	11	225	0.0	1017.6	10	0.000	0.0
20090829 07:40	13.8	13.8	13.8	89	12.0	5	11	180	0.0	1017.6	10	0.000	0.0
20090829 07:45	13.9	13.9	13.9	89	12.1	5	8	225	0.0	1017.6	16	0.000	0.0
20090829 07:50	13.9	13.9	13.9	90	12.3	5	11	225	0.0	1017.7	34	0.000	0.0
20090829 07:55	13.9	13.9	13.9	89	12.1	6	14	202	0.0	1017.5	37	0.000	0.0
20090829 08:00	13.9	13.9	13.9	89	12.1	6	11	202	0.0	1017.4	25	0.025	0.0
20090829 08:05	13.8	13.8	13.8	89	12.0	6	11	202	0.0	1017.6	16	0.000	0.0
20090829 08:10	13.8	13.8	13.8	89	12.0	5	8	202	0.0	1017.7	31	0.000	0.0
20090829 08:15	13.8	13.8	13.8	89	12.0	5	11	202	0.0	1017.8	36	0.000	0.0
20090829 08:20	13.8	13.8	13.8	89	12.0	5	10	202	0.0	1017.9	29	0.000	0.0
20090829 08:25	13.9	13.9	13.9	88	11.9	5	11	202	0.0	1017.9	25	0.000	0.0
20090829 08:30	13.9	13.9	13.9	88	11.9	5	10	225	0.0	1017.8	26	0.000	0.0
20090829 08:35	13.9	13.9	13.9	88	11.9	6	13	202	0.0	1017.9	26	0.000	0.0
20090829 08:40	13.9	13.9	13.9	88	11.9	6	11	225	0.0	1018.0	29	0.000	0.0
20090829 08:45	13.9	13.9	13.9	89	12.2	5	16	202	0.0	1018.0	33	0.000	0.0
20090829 08:50	13.9	13.9	13.9	89	12.2	6	13	202	0.0	1018.1	38	0.000	0.0
20090829 08:55	14.0	14.0	14.0	89	12.2	5	11	202	0.0	1018.0	45	0.000	0.0
20090829 09:00	14.0	14.0	14.0	88	12.0	6	11	202	0.0	1018.0	54	0.025	0.0
20090829 09:05	14.1	14.1	14.1	88	12.1	5	14	202	0.0	1018.2	66	0.000	0.0
20090829 09:10	14.1	14.1	14.1	88	12.1	5	11	202	0.0	1018.2	56	0.000	0.0
20090829 09:15	14.2	14.2	14.2	89	12.4	3	8	202	0.0	1018.2	62	0.000	0.4
20090829 09:20	14.2	14.2	14.2	89	12.4	3	6	225	0.0	1018.2	68	0.000	0.5
20090829 09:25	14.2	14.2	14.2	88	12.3	6	11	225	0.0	1018.2	62	0.000	0.4
20090829 09:30	14.2	14.2	14.2	87	12.1	6	14	225	0.0	1018.3	50	0.000	0.0
20090829 09:35	14.2	14.2	14.2	87	12.0	6	10	248	0.0	1018.5	41	0.000	0.0
20090829 09:40	14.2	14.2	14.2	87	12.0	5	10	225	0.0	1018.4	52	0.000	0.2
20090829 09:45	14.2	14.2	14.2	87	12.0	3	8	202	0.0	1018.5	47	0.000	0.0
20090829 09:50	14.2	14.2	14.2	87	12.0	5	8	248	0.0	1018.6	35	0.000	0.0
20090829 09:55	14.1	14.1	14.1	86	11.8	6	11	225	0.0	1018.6	45	0.000	0.0
20090829 10:00	14.1	14.1	14.1	87	12.0	6	11	202	0.0	1018.6	59	0.025	0.4
20090829 10:05	14.2	14.2	14.2	87	12.0	6	11	225	0.0	1018.5	63	0.000	0.6
20090829 10:10	14.2	14.2	14.2	86	11.9	8	14	225	0.0	1018.5	86	0.000	0.7
20090829 10:15	14.2	14.2	14.2	86	11.9	8	16	225	0.0	1018.6	86	0.000	0.8
20090829 10:20	14.2	14.2	14.2	85	11.7	10	18	248	0.0	1018.7	72	0.000	0.7
20090829 10:25	14.1	14.1	14.1	84	11.4	8	18	248	0.0	1018.9	61	0.000	0.6
20090829 10:30	14.1	14.1	14.1	83	11.2	8	14	225	0.0	1018.9	68	0.000	0.8
20090829 10:35	14.1	14.1	14.1	84	11.4	5	13	248	0.0	1019.1	84	0.000	0.9
20090829 10:40	14.2	14.2	14.2	84	11.5	5	11	248	0.0	1019.1	88	0.000	0.9
20090829 10:45	14.2	14.2	14.2	84	11.5	5	10	248	0.0	1019.0	82	0.000	0.9
20090829 10:50	14.2	14.2	14.2	84	11.6	6	11	248	0.0	1019.0	82	0.000	0.9
20090829 10:55	14.3	14.3	14.3	85	11.8	6	11	248	0.0	1019.0	75	0.000	0.8
20090829 11:00	14.3	14.3	14.3	85	11.8	6	11	248	0.0	1019.0	92	0.051	0.9
20090829 11:05	14.3	14.3	14.3	85	11.8	8	19	248	0.0	1019.2	124	0.000	1.3
20090829 11:10	14.4	14.4	14.4	85	11.9	6	16	248	0.0	1019.2	152	0.000	1.6
20090829 11:15	14.5	14.5	14.5	85	12.0	6	10	225	0.0	1019.2	178	0.000	1.8
20090829 11:20	14.6	14.6	14.6	85	12.1	8	14	248	0.0	1019.1	158	0.000	1.6
20090829 11:25	14.6	14.6	14.6	85	12.1	6	11	225	0.0	1019.2	188	0.000	2.0
20090829 11:30	14.7	14.7	14.7	84	12.0	6	11	225	0.0	1019.2	209	0.000	2.1
20090829 11:35	14.8	14.8	14.8	82	11.7	6	11	270	0.0	1019.2	210	0.000	2.1
20090829 11:40	14.9	14.9	14.9	81	11.7	8	14	248	0.0	1019.3	191	0.000	1.9
20090829 11:45	15.0	15.0	15.0	81	11.8	6	13	225	0.0	1019.2	202	0.000	2.0
20090829 11:50	15.1	15.1	15.1	81	11.8	6	11	225	0.0	1019.2	216	0.000	2.2
20090829 11:55	15.2	15.2	15.2	81	12.0	5	11	248	0.0	1019.2	217	0.000	2.2
20090829 12:00	15.3	15.3	15.3	78	11.5	5	8	225	0.0	1019.0	241	0.102	2.5
20090829 12:05	15.6	15.6	15.6	82	12.5	6	11	225	0.0	1019.2	244	0.000	2.5
20090829 12:10	15.6	15.6	15.6	71	10.3	5	11	292	0.0	1019.2	219	0.000	2.3
20090829 12:15	15.7	15.7	15.7	71	10.4	6	16	270	0.0	1019.3	212	0.000	2.2
20090829 12:20	15.8	15.8	15.8	70	10.4	6	11	270	0.0	1019.2	265	0.000	2.8
20090829 12:25	16.0	16.0	16.0	66	9.6	8	14	270	0.0	1019.2	328	0.000	3.4
20090829 12:30	16.2	16.2	16.2	67	10.1	8	16	270	0.0	1019.2	413	0.000	3.9
20090829 12:35	16.6	16.6	16.6	66	10.2	6	11	270	0.0	1019.0	443	0.000	4.0
20090829 12:40	16.7	16.7	16.7	63	9.6	8	19	248	0.0	1019.1	264	0.000	2.7
20090829 12:45	16.6	16.6	16.6	61	9.1	6	11	292	0.0	1019.1	204	0.000	2.2
20090829 12:50	16.5	16.5	16.5	62	9.2	8	14	270	0.0	1019.1	194	0.000	2.1
20090829 12:55	16.4	16.4	16.4	63	9.3	8	13	225	0.0	1019.1	213	0.000	2.3
20090829 13:00	16.4	16.4	16.4	66	10.1	6	14	270	0.0	1019.1	265	0.178	2.9
20090829 13:05	16.6	16.6	16.6	63	9.5	10	19	248	0.0	1019.2	309	0.000	3.2
20090829 13:10	16.7	16.7	16.7	60	8.9	8	16	248	0.0	1019.3	318	0.000	3.4
20090829 13:15	16.9	16.9	16.9	60	9.1	10	19	270	0.0	1019.3	445	0.000	4.2
20090829 13:20	17.2	17.2	17.2	58	8.8	11	23	270	0.0	1019.3	381	0.000	3.8
20090829 13:25	17.4	17.4	17.4	60	9.5	10	18	270	0.0	1019.2	538	0.000	4.7
20090829 13:30	17.6	17.6	17.6	57	8.9	10	18	248	0.0	1019.2	301	0.000	3.0
20090829 13:35	17.5	17.5	17.5	59	9.4	10	18	248	0.0	1019.2	309	0.000	3.6
20090829 13:40	17.5	17.5	17.5	61	9.9	8	18	248	0.0	1019.3	319	0.000	3.4
20090829 13:45	17.5	17.5	17.5	60	9.6	8	18	270	0.0	1019.2	363	0.000	4.1
20090829 13:50	17.7	17.7	17.7	56	8.8	8	16	292	0.0	1019.3	354	0.000	5.1
20090829 13:55	17.9	17.9	17.9	58	9.6	10	19	248	0.0	1019.2	546	0.000	5.4
20090829 14:00	18.2	18.2	18.2	57	9.6	11	32	225	0.0	1019.0	909	0.279	6.3
20090829 14:05	18.4	18.4	18.4	54	9.0	11	23	292	0.0	1019.0	395	0.000	3.7
20090829 14:10	18.0	18.0	18.0	56	9.1	11	19	248	0.0	1019.1	152	0.000	1.6
20090829 14:15	17.7	17.7	17.7	55	8.6	6	18	270	0.0	1019.1	204	0.000	2.3
20090829 14:20	17.7	17.7	17.7	57	9.1	6	11	292	0.0	1019.0	214	0.000	3.2
20090829 14:25	17.7	17.7	17.7	56	8.8	13	19	270	0.0	1019.0	182	0.000	2.3
20090829 14:30	17.4	17.4	17.4	58	9.0	10	19	248	0.0	1018.9	157	0.000	2.1
20090829 14:35	17.3	17.3	17.3	59	9.2	10	18	270	0.0	1018.9	205	0.000	3.1
20090829 14:40	17.3	17.3	17.3	59	9.2	10	21	270	0.0	1018.9	230	0.000	3.8
20090829 14:45	17.7	17.7	17.7	57	9.0	10	18	292	0.0	1018.8	786	0.000	5.2
20090829 14:50	18.4	18.4	18.4	51	8.1	16	29	270	0.0	1018.7	762	0.000	5.6
20090829 14:55	19.1	19.1	19.1	47	7.5	19	31	270	0.0	1018.6	802	0.000	5.6
20090829 15:00	19.6	19.6	19.6	46	7.6	18	31	270	0.0	1018.6	793	0.305	5.3
20090829 15:05	19.8	19.8	19.8	45	7.5	16	26	270	0.0	1018.6	812	0.000	5.2
20090829 15:10	19.9	19.9	19.9	44	7.3	13	27	270	0.0	1018.7	773	0.000	4.6
20090829 15:15	20.0	20.0	20.0	44	7.4	16	29	270	0.0	1018.7	763	0.000	4.8
20090829 15:20	20.0	20.0	20.0	42	6.7	18	31	270	0.0	1018.7	613	0.000	3.5
20090829 15:25	19.8	19.8	19.8	43	6.8	13	21	270	0.0	1018.7	575	0.000	3.7
20090829 15:30	19.9	19.9	19.9	41	6.3	18	31	292	0.0	1018.8	748	0.000	4.5
20090829 15:35	19.9	19.9	19.9	42	6.6	14	31	315	0.0	1018.7	733	0.000	4.3
20090829 15:40	20.1	20.1	20.1	43	7.1	14	24	292	0.0	1018.8	726	0.000	4.0
20090829 15:45	20.4	20.4	20.4	42	7.0	13	21	292	0.0	1018.7	704	0.000	3.7
20090829 15:50	20.3	20.3	20.3	41	6.6	18	27	270	0.0	1018.8	404	0.000	3.3
20090829 15:55	19.8	19.8	19.8	41	6.1	14	27	270	0.0	1018.9	256	0.000	2.7
20090829 16:00	19.7	19.7	19.7	42	6.4	10	19	292	0.0	1018.9	628	0.483	3.5
20090829 16:05	19.8	19.8	19.8	40	5.8	16	24	270	0.2	1019.1	153	0.000	2.5
20090829 16:10	19.6	19.6	19.6	40	5.6	16	26	270	0.0	1019.2	582	0.000	3.1
20090829 16:15	19.9	19.9	19.9	41	6.3	13	21	292	0.0	1019.1	654	0.000	3.2
20090829 16:20	20.4	20.4	20.4	41	6.7	13	19	292	0.0	1019.0	615	0.000	3.1
20090829 16:25	20.5	20.5	20.5	40	6.4	11	27	315	0.0	1019.1	597	0.000	2.9
20090829 16:30	20.4	20.4	20.4	38	5.6	10	21	315	0.0	1019.1	583	0.000	2.8
20090829 16:35	20.6	20.6	20.6	41	6.8	10	18	292	0.0	1019.1	555	0.000	2.4
20090829 16:40	20.5	20.5	20.5	39	6.1	13	29	315	0.0	1019.1	593	0.000	2.3
20090829 16:45	20.1	20.1	20.1	39	5.7	16	26	315	0.0	1019.2	578	0.000	2.3
20090829 16:50	19.8	19.8	19.8	38	5.1	14	23	292	0.0	1019.3	325	0.000	1.8
20090829 16:55	19.7	19.7	19.7	40	5.7	8	19	292	0.0	1019.3	438	0.000	2.0
20090829 17:00	19.8	19.8	19.8	40	5.8	10	19	270	0.0	1019.3	387	0.381	1.7
20090829 17:05	19.7	19.7	19.7	43	6.7	8	19	270	0.0	1019.4	304	0.000	1.7
20090829 17:10	19.7	19.7	19.7	40	5.7	11	21	292	0.0	1019.3	224	0.000	1.5
20090829 17:15	19.5	19.5	19.5	40	5.5	10	23	315	0.0	1019.4	447	0.000	1.6
20090829 17:20	19.5	19.5	19.5	40	5.5	13	21	315	0.0	1019.4	427	0.000	1.5
20090829 17:25	19.7	19.7	19.7	39	5.3	10	21	315	0.0	1019.5	252	0.000	1.3
20090829 17:30	19.2	19.2	19.2	40	5.3	10	23	315	0.0	1019.5	101	0.000	1.2
20090829 17:35	19.1	19.1	19.1	39	4.8	14	26	292	0.0	1019.5	370	0.000	1.2
20090829 17:40	19.3	19.3	19.3	41	5.7	13	23	292	0.0	1019.6	361	0.000	1.2
20090829 17:45	19.6	19.6	19.6	39	5.2	14	24	292	0.0	1019.7	342	0.000	1.1
20090829 17:50	19.7	19.7	19.7	39	5.3	14	24	292	0.0	1019.7	331	0.000	1.0
20090829 17:55	19.8	19.8	19.8	38	5.0	13	23	292	0.0	1019.6	322	0.000	0.9
20090829 18:00	19.8	19.8	19.8	39	5.4	11	26	292	0.0	1019.6	322	0.279	0.8
20090829 18:05	19.6	19.6	19.6	41	5.9	8	16	315	0.0	1019.7	108	0.000	0.7
20090829 18:10	19.3	19.3	19.3	42	6.0	6	16	292	0.0	1019.8	151	0.000	0.6
20090829 18:15	19.3	19.3	19.3	41	5.7	8	16	292	0.0	1019.8	264	0.000	0.6
20090829 18:20	19.3	19.3	19.3	41	5.7	10	23	315	0.0	1019.8	259	0.000	0.6
20090829 18:25	19.2	19.2	19.2	41	5.6	8	19	315	0.0	1019.8	253	0.000	0.5
20090829 18:30	19.0	19.0	19.0	41	5.4	5	11	315	0.0	1019.9	162	0.000	0.3
20090829 18:35	18.6	18.6	18.6	43	5.8	3	6	315	0.0	1020.0	97	0.000	0.0
20090829 18:40	18.4	18.4	18.4	44	6.0	3	8	315	0.0	1020.1	174	0.000	0.0
20090829 18:45	18.3	18.3	18.3	43	5.5	8	16	315	0.0	1020.1	79	0.000	0.0
20090829 18:50	18.1	18.1	18.1	44	5.6	8	19	292	0.0	1020.1	71	0.000	0.0
20090829 18:55	17.8	17.8	17.8	46	6.1	10	18	315	0.0	1020.2	67	0.000	0.0
20090829 19:00	17.6	17.6	17.6	46	5.8	5	14	292	0.0	1020.3	68	0.152	0.0
20090829 19:05	17.4	17.4	17.4	47	6.0	6	14	315	0.0	1020.4	56	0.000	0.0
20090829 19:10	17.3	17.3	17.3	47	5.9	6	14	315	0.0	1020.4	50	0.000	0.0
20090829 19:15	17.2	17.2	17.2	48	6.1	5	10	315	0.0	1020.4	50	0.000	0.0
20090829 19:20	17.1	17.1	17.1	49	6.3	3	8	315	0.0	1020.5	41	0.000	0.0
20090829 19:25	16.9	16.9	16.9	49	6.2	2	6	292	0.0	1020.5	33	0.000	0.0
20090829 19:30	16.7	16.7	16.7	50	6.2	2	5	292	0.0	1020.7	26	0.000	0.0
20090829 19:35	16.5	16.5	16.5	51	6.3	0	5	292	0.0	1020.7	21	0.000	0.0
20090829 19:40	16.3	16.3	16.3	53	6.7	0	3	292	0.0	1020.7	17	0.000	0.0
20090829 19:45	16.1	16.1	16.1	54	6.7	0	2	292	0.0	1020.8	15	0.000	0.0
20090829 19:50	15.8	15.8	15.8	56	7.0	0	2	292	0.0	1020.8	12	0.000	0.0
20090829 19:55	15.6	15.6	15.6	57	7.1	0	2	292	0.0	1020.9	9	0.000	0.0
20090829 20:00	15.3	15.3	15.3	58	7.1	0	0	-100000	0.0	1020.9	5	0.025	0.0
20090829 20:05	15.0	15.0	15.0	58	6.8	0	0	-100000	0.0	1021.0	0	0.000	0.0
20090829 20:10	14.9	14.9	14.9	57	6.5	0	0	-100000	0.0	1021.0	0	0.000	0.0
20090829 20:15	14.7	14.7	14.7	57	6.3	0	0	-100000	0.0	1021.0	0	0.000	0.0
20090829 20:20	14.6	14.6	14.6	59	6.6	0	0	-100000	0.0	1021.3	0	0.000	0.0
20090829 20:25	14.4	14.4	14.4	60	6.7	0	0	-100000	0.0	1021.3	0	0.000	0.0
20090829 20:30	14.3	14.3	14.3	60	6.6	0	0	-100000	0.0	1021.3	0	0.000	0.0
20090829 20:35	14.2	14.2	14.2	62	7.0	0	0	-100000	0.0	1021.4	0	0.000	0.0
20090829 20:40	14.1	14.1	14.1	64	7.3	0	0	-100000	0.0	1021.4	0	0.000	0.0
20090829 20:45	13.9	13.9	13.9	64	7.2	0	0	-100000	0.0	1021.5	0	0.000	0.0
20090829 20:50	13.8	13.8	13.8	65	7.3	0	0	-100000	0.0	1021.5	0	0.000	0.0
20090829 20:55	13.7	13.7	13.7	65	7.2	0	0	-100000	0.0	1021.6	0	0.000	0.0
20090829 21:00	13.5	13.5	13.5	66	7.3	0	0	-100000	0.0	1021.7	0	0.000	0.0
20090829 21:05	13.4	13.4	13.4	67	7.4	0	0	-100000	0.0	1021.7	0	0.000	0.0
20090829 21:10	13.3	13.3	13.3	68	7.5	0	0	-100000	0.0	1021.7	0	0.000	0.0
20090829 21:15	13.2	13.2	13.2	69	7.7	0	0	-100000	0.0	1021.8	0	0.000	0.0
20090829 21:20	13.1	13.1	13.1	70	7.7	0	0	-100000	0.0	1021.9	0	0.000	0.0
20090829 21:25	12.9	12.9	12.9	70	7.5	0	0	-100000	0.0	1022.0	0	0.000	0.0
20090829 21:30	12.7	12.7	12.7	70	7.4	0	0	-100000	0.0	1021.9	0	0.000	0.0
20090829 21:35	12.6	12.6	12.6	69	7.0	0	0	-100000	0.0	1022.0	0	0.000	0.0
20090829 21:40	12.4	12.4	12.4	70	7.1	0	0	-100000	0.0	1022.0	0	0.000	0.0
20090829 21:45	12.3	12.3	12.3	71	7.2	0	0	-100000	0.0	1022.2	0	0.000	0.0
20090829 21:50	12.3	12.3	12.3	72	7.4	0	0	-100000	0.0	1022.2	0	0.000	0.0
20090829 21:55	12.2	12.2	12.2	74	7.7	0	0	-100000	0.0	1022.3	0	0.000	0.0
20090829 22:00	12.1	12.1	12.1	74	7.6	0	0	-100000	0.0	1022.3	0	0.025	0.0
20090829 22:05	12.0	12.0	12.0	75	7.7	0	0	-100000	0.0	1022.2	0	0.000	0.0
20090829 22:10	11.9	11.9	11.9	75	7.7	0	0	-100000	0.0	1022.2	0	0.000	0.0
20090829 22:15	11.8	11.8	11.8	76	7.7	0	0	-100000	0.0	1022.4	0	0.000	0.0
20090829 22:20	11.8	11.8	11.8	76	7.7	0	0	-100000	0.0	1022.4	0	0.000	0.0
20090829 22:25	11.7	11.7	11.7	77	7.8	0	0	-100000	0.0	1022.4	0	0.000	0.0
20090829 22:30	11.6	11.6	11.6	77	7.7	0	0	-100000	0.0	1022.3	0	0.000	0.0
20090829 22:35	11.6	11.6	11.6	77	7.7	0	0	-100000	0.0	1022.4	0	0.000	0.0
20090829 22:40	11.5	11.5	11.5	78	7.8	0	0	-100000	0.0	1022.4	0	0.000	0.0
20090829 22:45	11.4	11.4	11.4	78	7.7	0	0	-100000	0.0	1022.3	0	0.000	0.0
20090829 22:50	11.3	11.3	11.3	78	7.6	0	0	-100000	0.0	1022.5	0	0.000	0.0
20090829 22:55	11.2	11.2	11.2	79	7.7	0	0	-100000	0.0	1022.5	0	0.000	0.0
20090829 23:00	11.1	11.1	11.1	79	7.6	0	0	-100000	0.0	1022.4	0	0.025	0.0
20090829 23:05	11.1	11.1	11.1	79	7.6	0	0	-100000	0.0	1022.4	0	0.000	0.0
20090829 23:10	11.0	11.0	11.0	78	7.3	0	0	-100000	0.0	1022.3	0	0.000	0.0
20090829 23:15	11.0	11.0	11.0	78	7.3	0	0	-100000	0.0	1022.3	0	0.000	0.0
20090829 23:20	10.9	10.9	10.9	79	7.4	0	0	-100000	0.0	1022.3	0	0.000	0.0
20090829 23:25	10.9	10.9	10.9	79	7.4	0	0	-100000	0.0	1022.4	0	0.000	0.0
20090829 23:30	10.9	10.9	10.9	79	7.4	0	0	-100000	0.0	1022.5	0	0.000	0.0
20090829 23:35	10.9	10.9	10.9	79	7.4	0	0	-100000	0.0	1022.5	0	0.000	0.0
20090829 23:40	10.8	10.8	10.8	80	7.5	0	0	-100000	0.0	1022.5	0	0.000	0.0
20090829 23:45	10.9	10.9	10.9	80	7.6	0	2	292	0.0	1022.5	0	0.000	0.0
20090829 23:50	11.0	11.0	11.0	80	7.7	0	3	292	0.0	1022.5	0	0.000	0.0
20090829 23:55	11.1	11.1	11.1	80	7.7	0	3	292	0.0	1022.5	0	0.000	0.0



Please note the license to use and transfer of this data:
http://creativecommons.org/licenses/by-nc-sa/3.0/deed.en

Bitte beachten sie die Lizenz zur Verwertung und Weitergabe der Daten:
http://creativecommons.org/licenses/by-nc-sa/3.0/deed.de

zurück zur Übersicht der Archivdaten (Monats und Tagesdaten)

Cookies helfen bei der Bereitstellung von Inhalten. Durch die Nutzung dieser Seiten erklärst du dich damit einverstanden, dass Cookies auf deinem Rechner gespeichert werden. Weitere Information